createdAt,value
2023-02-27T00:00:31.377Z,67.86
2023-02-27T00:03:37.432Z,67.69
2023-02-27T00:06:46.797Z,68.00
2023-02-27T00:09:52.667Z,68.13
2023-02-27T00:12:59.360Z,67.70
2023-02-27T00:16:05.444Z,68.27
2023-02-27T00:19:12.773Z,68.58
2023-02-27T00:22:21.099Z,68.69
2023-02-27T00:25:27.857Z,68.75
2023-02-27T00:28:33.956Z,69.27
2023-02-27T00:31:40.834Z,69.13
2023-02-27T00:34:46.749Z,69.54
2023-02-27T00:37:56.819Z,69.11
2023-02-27T00:41:03.073Z,69.59
2023-02-27T00:44:09.794Z,69.71
2023-02-27T00:47:15.809Z,69.98
2023-02-27T00:50:22.829Z,69.91
2023-02-27T00:53:31.522Z,69.81
2023-02-27T00:56:38.240Z,70.20
2023-02-27T00:59:44.194Z,70.07
2023-02-27T01:02:53.389Z,69.60
2023-02-27T01:05:59.309Z,69.96
2023-02-27T01:09:09.222Z,69.77
2023-02-27T01:12:16.254Z,69.74
2023-02-27T01:15:24.388Z,70.07
2023-02-27T01:18:30.319Z,69.82
2023-02-27T01:21:37.217Z,69.92
2023-02-27T01:24:49.008Z,69.77
2023-02-27T01:27:55.764Z,69.19
2023-02-27T01:31:01.777Z,68.08
2023-02-27T01:34:08.607Z,66.56
2023-02-27T01:37:14.618Z,65.29
2023-02-27T01:40:25.744Z,62.97
2023-02-27T01:43:31.932Z,60.98
2023-02-27T01:46:38.967Z,58.84
2023-02-27T01:49:45.068Z,58.11
2023-02-27T01:52:59.314Z,57.85
2023-02-27T01:56:16.277Z,57.85
2023-02-27T01:59:25.119Z,57.97
2023-02-27T02:02:40.586Z,57.77
2023-02-27T02:05:50.115Z,57.71
2023-02-27T02:09:01.042Z,57.44
2023-02-27T02:12:14.936Z,57.52
2023-02-27T02:15:33.197Z,57.45
2023-02-27T02:18:58.046Z,57.37
2023-02-27T02:22:50.176Z,58.07
2023-02-27T02:26:33.841Z,57.67
2023-02-27T02:30:41.409Z,58.53
2023-02-27T02:34:34.073Z,58.08
2023-02-27T02:38:31.149Z,58.89
2023-02-27T02:42:01.181Z,58.76
2023-02-27T02:45:23.600Z,59.18
2023-02-27T02:48:40.362Z,59.60
2023-02-27T02:51:59.715Z,60.06
2023-02-27T02:55:22.857Z,60.85
2023-02-27T02:58:39.493Z,61.20
2023-02-27T03:01:55.467Z,62.01
2023-02-27T03:05:10.833Z,62.85
2023-02-27T03:08:27.704Z,63.62
2023-02-27T03:11:47.126Z,63.91
2023-02-27T03:15:06.503Z,64.63
2023-02-27T03:18:21.811Z,65.05
2023-02-27T03:21:39.401Z,65.11
2023-02-27T03:24:52.327Z,65.54
2023-02-27T03:28:11.185Z,65.50
2023-02-27T03:31:29.417Z,65.31
2023-02-27T03:34:42.010Z,65.50
2023-02-27T03:38:05.313Z,65.38
2023-02-27T03:41:29.478Z,65.55
2023-02-27T03:45:06.313Z,65.77
2023-02-27T03:48:13.738Z,65.13
2023-02-27T03:51:25.746Z,65.22
2023-02-27T03:54:42.789Z,65.52
2023-02-27T03:57:53.830Z,65.82
2023-02-27T04:01:03.574Z,65.62
2023-02-27T04:04:17.358Z,65.46
2023-02-27T04:08:29.874Z,65.52
2023-02-27T04:11:57.996Z,65.59
2023-02-27T04:15:26.273Z,65.51
2023-02-27T04:19:01.569Z,65.06
2023-02-27T04:22:27.100Z,65.62
2023-02-27T04:25:57.543Z,65.45
2023-02-27T04:29:19.775Z,65.63
2023-02-27T04:32:40.146Z,65.74
2023-02-27T04:35:57.681Z,65.66
2023-02-27T04:39:11.233Z,65.95
2023-02-27T04:42:26.257Z,65.74
2023-02-27T04:45:42.599Z,66.00
2023-02-27T04:49:00.857Z,67.06
2023-02-27T04:52:34.875Z,66.76
2023-02-27T04:55:51.755Z,67.37
2023-02-27T04:59:06.550Z,67.30
2023-02-27T05:02:25.085Z,67.39
2023-02-27T05:05:38.554Z,67.56
2023-02-27T05:09:02.010Z,67.85
2023-02-27T05:12:18.442Z,67.76
2023-02-27T05:15:36.536Z,67.54
2023-02-27T05:18:42.976Z,67.75
2023-02-27T05:22:05.941Z,68.03
2023-02-27T05:25:27.037Z,67.85
2023-02-27T05:28:48.863Z,67.93
2023-02-27T05:32:08.009Z,67.89
2023-02-27T05:35:29.275Z,68.09
2023-02-27T05:38:43.823Z,68.05
2023-02-27T05:42:01.657Z,68.02
2023-02-27T05:45:16.339Z,67.80
2023-02-27T05:48:32.912Z,68.11
2023-02-27T05:51:46.045Z,68.19
2023-02-27T05:55:08.683Z,68.54
2023-02-27T05:58:28.688Z,68.25
2023-02-27T06:01:36.508Z,68.15
2023-02-27T06:04:47.629Z,68.33
2023-02-27T06:07:54.623Z,68.56
2023-02-27T06:11:00.696Z,68.34
2023-02-27T06:14:09.957Z,68.08
2023-02-27T06:17:15.831Z,67.70
2023-02-27T06:20:22.812Z,67.88
2023-02-27T06:23:28.790Z,67.48
2023-02-27T06:26:35.497Z,67.73
2023-02-27T06:29:44.034Z,67.07
2023-02-27T06:32:54.491Z,67.02
2023-02-27T06:36:00.590Z,67.06
2023-02-27T06:39:11.831Z,67.05
2023-02-27T06:42:28.178Z,67.31
2023-02-27T06:45:38.177Z,66.92
2023-02-27T06:48:44.953Z,67.35
2023-02-27T06:51:52.206Z,67.21
2023-02-27T06:55:02.507Z,66.34
2023-02-27T06:58:09.165Z,66.09
2023-02-27T07:01:18.262Z,66.55
2023-02-27T07:04:25.471Z,66.15
2023-02-27T07:07:31.335Z,66.63
2023-02-27T07:10:44.268Z,65.91
2023-02-27T07:13:50.337Z,65.97
2023-02-27T07:17:03.437Z,65.48
2023-02-27T07:20:13.328Z,65.78
2023-02-27T07:23:20.077Z,65.70
2023-02-27T07:26:26.288Z,66.12
2023-02-27T07:29:33.236Z,65.13
2023-02-27T07:32:41.754Z,65.29
2023-02-27T07:35:48.953Z,65.29
2023-02-27T07:38:54.819Z,64.13
2023-02-27T07:42:01.508Z,63.57
2023-02-27T07:45:08.718Z,63.29
2023-02-27T07:48:18.108Z,63.48
2023-02-27T07:51:24.811Z,62.34
2023-02-27T07:54:33.238Z,62.60
2023-02-27T07:57:39.989Z,62.63
2023-02-27T08:00:46.894Z,62.00
2023-02-27T08:03:55.585Z,62.06
2023-02-27T08:07:08.644Z,61.73
2023-02-27T08:10:16.930Z,61.83
2023-02-27T08:13:42.404Z,62.49
2023-02-27T08:16:49.481Z,62.51
2023-02-27T08:20:05.020Z,61.70
2023-02-27T08:23:12.086Z,61.79
2023-02-27T08:26:19.068Z,61.50
2023-02-27T08:29:31.176Z,60.69
2023-02-27T08:32:39.039Z,59.80
2023-02-27T08:35:47.728Z,60.00
2023-02-27T08:38:55.464Z,58.55
2023-02-27T08:42:01.492Z,58.43
2023-02-27T08:45:10.105Z,58.23
2023-02-27T08:48:17.454Z,57.60
2023-02-27T08:51:27.117Z,57.68
2023-02-27T08:54:33.669Z,56.57
2023-02-27T08:57:40.405Z,57.36
2023-02-27T09:00:46.442Z,57.68
2023-02-27T09:03:53.403Z,57.01
2023-02-27T09:07:02.058Z,58.38
2023-02-27T09:10:10.611Z,60.16
2023-02-27T09:13:16.747Z,62.06
2023-02-27T09:16:25.845Z,62.89
2023-02-27T09:19:32.158Z,62.19
2023-02-27T09:22:42.919Z,62.69
2023-02-27T09:25:50.786Z,63.26
2023-02-27T09:28:57.472Z,63.59
2023-02-27T09:32:03.415Z,64.03
2023-02-27T09:35:12.416Z,63.52
2023-02-27T09:38:20.879Z,63.59
2023-02-27T09:41:51.270Z,63.24
2023-02-27T09:45:05.943Z,62.85
2023-02-27T09:48:30.173Z,63.71
2023-02-27T09:51:36.193Z,63.60
2023-02-27T09:54:45.648Z,65.45
2023-02-27T09:58:02.441Z,65.27
2023-02-27T10:01:19.433Z,65.67
2023-02-27T10:04:44.088Z,64.98
2023-02-27T10:08:06.609Z,62.97
2023-02-27T10:11:25.118Z,63.87
2023-02-27T10:14:45.706Z,63.80
2023-02-27T10:18:09.513Z,63.14
2023-02-27T10:21:33.807Z,63.77
2023-02-27T10:24:50.472Z,62.57
2023-02-27T10:28:16.093Z,60.24
2023-02-27T10:31:30.113Z,61.40
2023-02-27T10:34:40.519Z,62.62
2023-02-27T10:37:55.155Z,60.84
2023-02-27T10:41:05.364Z,61.25
2023-02-27T10:44:19.108Z,61.24
2023-02-27T10:47:29.908Z,62.18
2023-02-27T10:50:40.023Z,61.37
2023-02-27T10:53:46.699Z,60.54
2023-02-27T10:56:56.944Z,58.65
2023-02-27T11:00:25.502Z,57.08
2023-02-27T11:03:40.943Z,56.58
2023-02-27T11:06:55.788Z,56.61
2023-02-27T11:10:20.133Z,56.40
2023-02-27T11:13:29.233Z,56.14
2023-02-27T11:16:52.622Z,52.77
2023-02-27T11:20:01.539Z,51.78
2023-02-27T11:23:10.712Z,49.94
2023-02-27T11:26:25.381Z,50.41
2023-02-27T11:29:31.406Z,50.34
2023-02-27T11:32:51.519Z,50.05
2023-02-27T11:36:00.997Z,50.28
2023-02-27T11:39:08.044Z,49.59
2023-02-27T11:42:29.633Z,50.57
2023-02-27T11:46:04.685Z,50.45
2023-02-27T11:49:37.446Z,50.57
2023-02-27T11:52:56.109Z,51.27
2023-02-27T11:56:08.723Z,51.91
2023-02-27T11:59:38.285Z,51.91
2023-02-27T12:02:59.504Z,51.26
2023-02-27T12:06:22.274Z,50.39
2023-02-27T12:09:55.833Z,50.02
2023-02-27T12:13:14.607Z,49.57
2023-02-27T12:16:33.068Z,47.80
2023-02-27T12:19:53.416Z,48.67
2023-02-27T12:23:16.982Z,48.21
2023-02-27T12:26:32.060Z,49.33
2023-02-27T12:29:48.559Z,47.30
2023-02-27T12:33:07.037Z,47.11
2023-02-27T12:36:17.618Z,46.64
2023-02-27T12:39:29.063Z,46.61
2023-02-27T12:43:13.433Z,45.13
2023-02-27T12:46:38.720Z,45.85
2023-02-27T12:49:55.746Z,43.94
2023-02-27T12:53:35.284Z,43.21
2023-02-27T12:57:04.126Z,41.95
2023-02-27T13:00:21.495Z,41.16
2023-02-27T13:03:39.485Z,41.75
2023-02-27T13:06:58.220Z,42.89
2023-02-27T13:10:18.085Z,43.56
2023-02-27T13:13:41.201Z,44.90
2023-02-27T13:16:59.054Z,45.65
2023-02-27T13:20:32.887Z,46.95
2023-02-27T13:23:58.710Z,46.72
2023-02-27T13:27:22.786Z,45.69
2023-02-27T13:30:41.146Z,46.05
2023-02-27T13:34:09.522Z,46.55
2023-02-27T13:37:26.681Z,46.50
2023-02-27T13:40:42.568Z,45.91
2023-02-27T13:43:52.441Z,47.83
2023-02-27T13:47:43.757Z,46.26
2023-02-27T13:50:55.417Z,45.96
2023-02-27T13:54:26.298Z,45.97
2023-02-27T13:57:40.060Z,47.12
2023-02-27T14:00:58.919Z,47.55
2023-02-27T14:04:17.433Z,47.46
2023-02-27T14:07:29.943Z,46.19
2023-02-27T14:10:40.119Z,46.57
2023-02-27T14:14:05.586Z,46.41
2023-02-27T14:17:17.119Z,46.22
2023-02-27T14:20:54.672Z,46.34
2023-02-27T14:24:01.042Z,45.82
2023-02-27T14:27:20.331Z,46.57
2023-02-27T14:30:35.134Z,47.20
2023-02-27T14:33:49.223Z,47.71
2023-02-27T14:37:04.130Z,45.60
2023-02-27T14:40:29.173Z,46.35
2023-02-27T14:43:43.362Z,47.36
2023-02-27T14:46:50.445Z,46.81
2023-02-27T14:49:56.997Z,45.36
2023-02-27T14:53:08.762Z,45.59
2023-02-27T14:56:22.951Z,46.86
2023-02-27T14:59:34.252Z,46.82
2023-02-27T15:02:41.210Z,47.36
2023-02-27T15:05:50.313Z,46.57
2023-02-27T15:09:00.085Z,47.76
2023-02-27T15:12:08.550Z,46.91
2023-02-27T15:15:24.449Z,46.88
2023-02-27T15:18:31.368Z,47.35
2023-02-27T15:21:44.387Z,47.63
2023-02-27T15:24:55.120Z,47.47
2023-02-27T15:28:07.380Z,48.31
2023-02-27T15:31:27.318Z,48.40
2023-02-27T15:34:34.019Z,48.42
2023-02-27T15:37:43.854Z,48.02
2023-02-27T15:40:53.317Z,47.76
2023-02-27T15:44:01.068Z,47.87
2023-02-27T15:47:09.859Z,48.93
2023-02-27T15:50:31.575Z,48.81
2023-02-27T15:53:41.884Z,49.50
2023-02-27T15:56:53.029Z,48.54
2023-02-27T16:00:04.711Z,49.14
2023-02-27T16:03:30.966Z,49.44
2023-02-27T16:06:42.496Z,49.18
2023-02-27T16:09:55.957Z,50.20
2023-02-27T16:13:24.172Z,50.05
2023-02-27T16:16:36.217Z,50.72
2023-02-27T16:19:46.085Z,49.87
2023-02-27T16:23:06.981Z,49.02
2023-02-27T16:26:32.146Z,49.48
2023-02-27T16:29:48.971Z,49.69
2023-02-27T16:33:04.493Z,49.31
2023-02-27T16:36:25.209Z,50.40
2023-02-27T16:39:31.525Z,50.25
2023-02-27T16:42:38.571Z,50.91
2023-02-27T16:45:56.605Z,50.73
2023-02-27T16:49:18.875Z,50.83
2023-02-27T16:52:25.819Z,50.98
2023-02-27T16:55:34.551Z,51.21
2023-02-27T16:58:40.752Z,51.42
2023-02-27T17:01:50.451Z,52.04
2023-02-27T17:04:56.574Z,51.97
2023-02-27T17:08:03.686Z,52.44
2023-02-27T17:11:10.389Z,52.06
2023-02-27T17:14:17.285Z,51.85
2023-02-27T17:17:25.903Z,51.63
2023-02-27T17:20:33.037Z,52.01
2023-02-27T17:23:39.002Z,52.42
2023-02-27T17:26:46.467Z,52.65
2023-02-27T17:29:52.535Z,52.36
2023-02-27T17:33:04.178Z,52.23
2023-02-27T17:36:13.951Z,52.84
2023-02-27T17:39:20.895Z,52.56
2023-02-27T17:42:27.443Z,52.64
2023-02-27T17:45:34.512Z,51.85
2023-02-27T17:48:43.254Z,52.25
2023-02-27T17:51:50.605Z,52.76
2023-02-27T17:55:05.038Z,52.68
2023-02-27T17:58:12.868Z,52.90
2023-02-27T18:01:26.658Z,52.94
2023-02-27T18:04:37.319Z,53.11
2023-02-27T18:07:44.193Z,52.82
2023-02-27T18:10:51.867Z,53.13
2023-02-27T18:14:00.816Z,53.39
2023-02-27T18:17:13.345Z,53.16
2023-02-27T18:20:22.276Z,52.85
2023-02-27T18:23:29.460Z,52.59
2023-02-27T18:26:36.732Z,52.37
2023-02-27T18:29:43.963Z,52.50
2023-02-27T18:32:50.069Z,52.61
2023-02-27T18:35:59.756Z,52.64
2023-02-27T18:39:08.002Z,52.34
2023-02-27T18:42:17.022Z,52.53
2023-02-27T18:45:23.572Z,53.08
2023-02-27T18:48:36.127Z,52.48
2023-02-27T18:51:50.967Z,52.31
2023-02-27T18:54:58.017Z,52.49
2023-02-27T18:58:06.042Z,52.97
2023-02-27T19:01:23.982Z,52.67
2023-02-27T19:04:30.294Z,52.64
2023-02-27T19:07:39.970Z,53.22
2023-02-27T19:10:46.886Z,52.55
2023-02-27T19:13:55.216Z,52.43
2023-02-27T19:17:01.859Z,52.69
2023-02-27T19:20:14.563Z,52.57
2023-02-27T19:23:23.235Z,52.80
2023-02-27T19:26:30.946Z,52.67
2023-02-27T19:29:37.136Z,52.70
2023-02-27T19:32:44.229Z,52.98
2023-02-27T19:35:50.482Z,53.21
2023-02-27T19:39:00.907Z,53.01
2023-02-27T19:42:07.241Z,53.45
2023-02-27T19:45:15.029Z,53.15
2023-02-27T19:48:21.282Z,53.06
2023-02-27T19:51:28.747Z,52.74
2023-02-27T19:54:37.628Z,53.00
2023-02-27T19:57:44.648Z,53.26
2023-02-27T20:00:51.629Z,53.35
2023-02-27T20:03:59.577Z,53.21
2023-02-27T20:07:05.754Z,53.48
2023-02-27T20:10:16.350Z,53.54
2023-02-27T20:13:22.705Z,53.30
2023-02-27T20:16:34.598Z,53.82
2023-02-27T20:19:41.762Z,53.67
2023-02-27T20:22:49.470Z,53.93
2023-02-27T20:25:58.319Z,54.06
2023-02-27T20:29:09.775Z,53.71
2023-02-27T20:32:15.832Z,53.64
2023-02-27T20:35:22.802Z,53.41
2023-02-27T20:38:30.092Z,53.50
2023-02-27T20:41:40.554Z,53.92
2023-02-27T20:44:46.794Z,53.50
2023-02-27T20:47:53.910Z,53.17
2023-02-27T20:50:59.835Z,52.34
2023-02-27T20:54:11.102Z,51.15
2023-02-27T20:57:19.644Z,50.53
2023-02-27T21:00:28.036Z,51.64
2023-02-27T21:03:42.990Z,52.21
2023-02-27T21:06:49.823Z,52.45
2023-02-27T21:09:55.668Z,52.53
2023-02-27T21:13:05.049Z,53.29
2023-02-27T21:16:15.637Z,53.14
2023-02-27T21:19:22.336Z,53.56
2023-02-27T21:22:28.225Z,53.49
2023-02-27T21:25:34.917Z,53.26
2023-02-27T21:28:47.861Z,52.94
2023-02-27T21:31:55.655Z,53.18
2023-02-27T21:35:01.575Z,52.84
2023-02-27T21:38:08.354Z,52.81
2023-02-27T21:41:17.579Z,53.60
2023-02-27T21:44:29.875Z,53.40
2023-02-27T21:47:35.843Z,53.31
2023-02-27T21:50:43.064Z,53.49
2023-02-27T21:53:50.115Z,53.77
2023-02-27T21:56:58.233Z,53.90
2023-02-27T22:00:11.460Z,53.42
2023-02-27T22:03:18.257Z,53.81
2023-02-27T22:06:27.567Z,53.91
2023-02-27T22:09:34.664Z,53.27
2023-02-27T22:12:40.521Z,52.83
2023-02-27T22:15:50.068Z,52.21
2023-02-27T22:18:56.704Z,52.76
2023-02-27T22:22:03.509Z,52.61
2023-02-27T22:25:10.295Z,51.60
2023-02-27T22:28:16.910Z,51.21
2023-02-27T22:31:29.421Z,50.94
2023-02-27T22:34:36.767Z,51.10
2023-02-27T22:37:44.073Z,51.17
2023-02-27T22:40:50.730Z,50.98
2023-02-27T22:43:57.356Z,51.45
2023-02-27T22:47:06.722Z,51.50
2023-02-27T22:50:19.877Z,51.83
2023-02-27T22:53:26.850Z,51.59
2023-02-27T22:56:34.470Z,51.78
2023-02-27T22:59:41.469Z,51.42
2023-02-27T23:02:50.170Z,51.11
2023-02-27T23:05:56.831Z,51.38
2023-02-27T23:09:04.897Z,50.66
2023-02-27T23:12:11.811Z,51.04
2023-02-27T23:15:17.838Z,50.41
2023-02-27T23:18:27.726Z,50.49
2023-02-27T23:21:38.789Z,50.81
2023-02-27T23:24:45.437Z,51.38
2023-02-27T23:27:51.462Z,51.04
2023-02-27T23:30:59.744Z,50.60
2023-02-27T23:34:13.660Z,50.72
2023-02-27T23:37:20.265Z,50.12
2023-02-27T23:40:31.543Z,50.16
2023-02-27T23:43:38.508Z,50.53
2023-02-27T23:46:44.510Z,50.84
2023-02-27T23:49:53.795Z,50.76
2023-02-27T23:53:05.420Z,50.62
2023-02-27T23:56:18.587Z,51.08
2023-02-27T23:59:24.495Z,51.17
